Buoy 54955

sailwx.info

Track history (hours):
 
Tides and Currents Weather Stations Pressure Air Temp Water Temp Dewpoint Dewpoint Depression Visibility Wind Speed Wind Dir Waves Ship Positions

Luruyu54955

Last reported at 2016-May-24 15:00 UTC. Time now 2016-May-24 17:41 UTC.
Position S 36°31' W 158°30'.

Length 27 m.

Type: Fishing. MMSI: 412330945.

Barometer 1015.0 mb
Water temperature 16.9 ° C

Date/timePositionNaut miles runAvg speedWind from/ knotsBaromVisibWave heightAir tempDewpointWater temp
2016-May-24 15:00S 36°31' W 158°30'64727648.6 1015.0 16.9
2016-May-24 14:09N 36°44' E 122°19'5 8.0
2016-May-24 13:32N 36°46' E 122°24'647012087.2
2016-May-24 13:00S 36°32' W 158°30'2 1.6 1014.6 16.9
2016-May-24 12:00S 36°31' W 158°32'1 0.7 1015.0 16.9
2016-May-24 11:00S 36°31' W 158°31'0 0.1 1015.1 16.9
2016-May-24 08:00S 36°31' W 158°31'1 0.7 1013.9 16.9
2016-May-24 07:00S 36°30' W 158°31'0 0.0 1014.3 16.9
2016-May-24 06:00S 36°30' W 158°31'0 0.4 1014.4 16.9
2016-May-24 05:00S 36°31' W 158°30'1 1.0 1014.1 17.0
2016-May-24 04:00S 36°31' W 158°29'1 0.7 1014.0 17.0
2016-May-24 02:00S 36°30' W 158°31'0 0.1 1014.4 17.0
2016-May-24 01:00S 36°30' W 158°31'2 0.2 1014.6 16.9
2016-May-23 17:00S 36°28' W 158°32'0 0.0 1014.5 16.8
2016-May-23 16:00S 36°28' W 158°32'1 1.0 1014.2 16.8
2016-May-23 15:00S 36°28' W 158°30'0 0.0 1013.8 16.9
2016-May-23 14:00S 36°28' W 158°30'0 0.0 1013.7 16.9
2016-May-23 13:00S 36°28' W 158°30'2 0.6 1014.1 16.9
2016-May-23 10:00S 36°27' W 158°31'1 0.3 1013.7 16.9
2016-May-23 07:00S 36°26' W 158°30'0 0.0 1012.4 16.9
2016-May-23 06:00S 36°26' W 158°30'1 1.3 1012.1 16.9
2016-May-23 05:00S 36°25' W 158°30'1 0.7 1011.7 16.9
2016-May-23 04:00S 36°25' W 158°30'1 0.7 1011.6 16.9
2016-May-23 03:00S 36°25' W 158°30'0 0.0 1011.9 16.9
2016-May-23 02:00S 36°25' W 158°30'2 1.8 1012.0 16.9
2016-May-23 01:00S 36°24' W 158°31'2 0.4 1012.2 16.9
2016-May-22 20:00S 36°22' W 158°30'2 1.7 1014.5 16.9
2016-May-22 19:00S 36°20' W 158°31'3 1.3 1015.0 16.9
2016-May-22 17:00S 36°18' W 158°28'0 0.0 1014.7 16.9
2016-May-22 15:00S 36°18' W 158°28'1 0.3 1015.0 16.9
2016-May-22 13:00S 36°18' W 158°29'0 0.1 1016.1 16.9
2016-May-22 10:00S 36°18' W 158°29'2 0.5 1016.8 16.9
2016-May-22 06:00S 36°16' W 158°29'0 0.0 1016.3 17.0
2016-May-22 05:00S 36°16' W 158°29'1 0.9 1017.0 17.0
2016-May-22 04:00S 36°16' W 158°28'1 1.1 1016.5 17.0
2016-May-22 03:00S 36°15' W 158°29'0 0.0 1016.3 17.0
2016-May-22 02:00S 36°15' W 158°29'0 0.4 1015.8 17.1
2016-May-22 01:00S 36°15' W 158°29'1 1.4 1016.3 17.1
2016-May-22 00:00S 36°14' W 158°28'0 0.0 1016.8 17.1
2016-May-21 23:00S 36°14' W 158°28'0 0.0 1016.3 17.1
2016-May-21 20:00S 36°14' W 158°28'0 0.5 1017.1 17.0
2016-May-21 19:00S 36°13' W 158°29'1 0.7 1016.7 17.0
2016-May-21 17:00S 36°13' W 158°27'0 0.2 1015.4 17.0
2016-May-21 16:00S 36°14' W 158°27'2 0.5 1014.9 17.0
2016-May-21 13:00S 36°13' W 158°29'0 0.1 1013.6 17.0
2016-May-21 11:00S 36°13' W 158°29'0 0.0 1013.3 17.0
2016-May-21 10:00S 36°13' W 158°29'0 0.1 1013.3 17.0
2016-May-21 08:00S 36°13' W 158°29'0 0.3 1012.6 17.0
2016-May-21 07:00S 36°13' W 158°29'1 0.3 1012.6 17.0
2016-May-21 04:00S 36°12' W 158°28'0 0.2 1011.2 17.0
2016-May-21 02:00S 36°12' W 158°28'0 0.0 1010.7 17.1
2016-May-21 01:00S 36°12' W 158°28'0 0.3 1010.5 17.0
2016-May-21 00:00S 36°12' W 158°28'1 0.2 1010.4 17.0
2016-May-20 19:00S 36°12' W 158°29'1 1.4 1009.6 16.9
2016-May-20 18:00S 36°12' W 158°28'1 0.4 1009.1 16.9
2016-May-20 16:00S 36°12' W 158°29'0 0.2 1007.7 16.9
2016-May-20 14:00S 36°12' W 158°28'0 0.1 1006.8 16.9
2016-May-20 11:00S 36°12' W 158°28'1 0.2 1006.9 16.9
2016-May-20 07:00S 36°11' W 158°29'0 0.0 1007.3 16.8
2016-May-20 05:00S 36°11' W 158°29'0 0.2 1007.2 16.9
2016-May-20 04:00S 36°11' W 158°29'0 0.2 1006.8 16.9
2016-May-20 02:00S 36°11' W 158°29'0 0.0 1006.4 17.0
2016-May-20 00:00S 36°11' W 158°29'1 0.2 1005.9 17.0
2016-May-19 19:00S 36°12' W 158°29'0 0.0 1005.1 17.0
2016-May-19 18:00S 36°12' W 158°29'0 0.0 1004.6 17.0
2016-May-19 17:00S 36°12' W 158°29'0 0.4 1004.3 17.0
2016-May-19 16:00S 36°12' W 158°29'1 0.2 1003.7 17.0
2016-May-19 12:00S 36°11' W 158°30'0 0.0 1004.1 17.0
2016-May-19 11:00S 36°11' W 158°30'0 0.1 1004.2 17.0
2016-May-19 08:00S 36°11' W 158°30'0 0.3 1005.1 17.0
2016-May-19 07:00S 36°11' W 158°31'1 0.3 1005.4 17.0
2016-May-19 05:00S 36°11' W 158°31'0 0.5 1005.7 17.0
2016-May-19 04:00S 36°11' W 158°31'0 0.2 1005.5 17.0
2016-May-19 03:00S 36°11' W 158°31'0 0.0 1005.1 17.0
2016-May-19 02:00S 36°11' W 158°31'1 0.7 1005.0 17.0
2016-May-19 00:00S 36°11' W 158°32'1 0.3 1004.8 17.0
2016-May-18 20:00S 36°11' W 158°31'2 1.8 1005.1 16.9
2016-May-18 19:00S 36°12' W 158°33'2 0.5 1004.7 16.9
2016-May-18 16:00S 36°13' W 158°31'1 0.9 1002.3 17.0
2016-May-18 15:00S 36°13' W 158°32'0 0.0 1001.9 17.0
2016-May-18 14:00S 36°13' W 158°32'1 0.4 1001.4 17.0
2016-May-18 12:00S 36°13' W 158°33'0 0.0 1001.2 17.0
2016-May-18 11:00S 36°13' W 158°33'1 0.2 1001.1 17.0
2016-May-18 05:00S 36°13' W 158°35'1 0.6 999.8 17.0
2016-May-18 03:00S 36°14' W 158°35'1 0.4 999.6 17.1
2016-May-18 01:00S 36°15' W 158°36'1 0.2 1000.1 17.1
2016-May-17 19:00S 36°16' W 158°36'0 0.2 1002.5 17.0
2016-May-17 17:00S 36°16' W 158°37'0 0.4 1003.9 17.0
2016-May-17 16:00S 36°15' W 158°38'0 0.1 1004.3 17.0
2016-May-17 15:00S 36°15' W 158°37'0 0.0 1004.8 17.0
2016-May-17 14:00S 36°15' W 158°37'1 0.4 1005.7 17.0
2016-May-17 12:00S 36°15' W 158°38'64564191.5 1007.7 17.0
2016-May-17 10:27N 36°45' E 122°19'64554422.3
2016-May-17 09:00S 36°15' W 158°39'0 0.0 1010.4 17.1
2016-May-17 08:00S 36°15' W 158°39'0 0.1 1011.2 17.1
2016-May-17 05:00S 36°15' W 158°39'0 0.4 1011.9 17.1
2016-May-17 04:00S 36°15' W 158°40'1 0.2 1012.6 17.1
2016-May-17 01:00S 36°16' W 158°39'64572510.2 1013.1 17.1
2016-May-16 22:25N 36°51' E 122°23'8 8.8
2016-May-16 21:32N 36°48' E 122°32'9 8.6
2016-May-16 20:33N 36°43' E 122°41'643911457.5
2016-May-16 20:00S 36°16' W 158°39'1 0.6 1016.2 17.0
2016-May-16 19:00S 36°17' W 158°40'64377322.1 1016.5 17.0
2016-May-16 18:07N 36°41' E 122°40'2 2.8
2016-May-16 17:33N 36°42' E 122°41'643811484.9
2016-May-16 17:00S 36°17' W 158°40'1 1.1 1016.6 17.0
2016-May-16 16:00S 36°17' W 158°38'643510921.8 1016.6 17.0
2016-May-16 15:24N 36°43' E 122°48'643415662.0
2016-May-16 15:00S 36°17' W 158°39'643413779.6 1016.5 17.0
2016-May-16 14:31N 36°46' E 122°50'643212065.5
2016-May-16 14:00S 36°17' W 158°42'643214213.5 1016.8 17.0
2016-May-16 13:32N 36°47' E 122°51'643211747.2
2016-May-16 13:00S 36°17' W 158°42'0 0.0 1017.4 17.0
2016-May-16 12:00S 36°17' W 158°42'3 1.3 1018.0 17.0
2016-May-16 10:00S 36°17' W 158°39'643512569.5 1018.4 17.0
2016-May-16 09:29N 36°32' E 122°36'64354324.3
2016-May-16 08:00S 36°17' W 158°39'64369707.2 1018.7 17.0
2016-May-16 07:20N 36°30' E 122°33'643719104.3
2016-May-16 07:00S 36°17' W 158°39'0 0.1 1018.4 17.1
2016-May-16 06:00S 36°17' W 158°39'0 0.1 1018.3 17.1
2016-May-16 04:00S 36°17' W 158°39'0 0.1 1017.6 17.1
2016-May-16 03:00S 36°17' W 158°39'0 0.0 1017.7 17.1
2016-May-16 02:00S 36°17' W 158°39'0 0.0 1017.8 17.1
2016-May-16 01:00S 36°17' W 158°39'1 0.2 1017.9 17.1
2016-May-15 21:00S 36°16' W 158°39'1 0.5 1019.8 17.0
2016-May-15 19:00S 36°17' W 158°40'1 0.7 1020.0 17.0
2016-May-15 17:00S 36°18' W 158°38'1 1.4 1019.2 17.0
2016-May-15 16:00S 36°17' W 158°40'0 0.0 1018.9 17.0
2016-May-15 15:00S 36°17' W 158°40'0 0.0 1018.8 17.0
2016-May-15 12:00S 36°17' W 158°40'0 0.1 1019.1 17.0
2016-May-15 08:00S 36°18' W 158°40'1 0.6 1019.8 17.0
2016-May-15 07:00S 36°18' W 158°41'0 0.0 1019.6 17.0
2016-May-15 06:00S 36°18' W 158°41'0 0.2 1019.4 17.0
2016-May-15 05:00S 36°18' W 158°41'1 0.6 1019.5 17.0
2016-May-15 04:00S 36°18' W 158°40'0 0.1 1019.5 17.0
2016-May-15 03:00S 36°18' W 158°40'2 0.8 1019.6 17.0
2016-May-15 01:00S 36°19' W 158°42'1 0.1 1019.6 17.0
2016-May-14 19:00S 36°19' W 158°42'0 0.5 1021.8 17.0
2016-May-14 18:00S 36°19' W 158°42'   1021.6 17.0
Track history (hours):
 
Tides and Currents Weather Stations Pressure Air Temp Water Temp Dewpoint Dewpoint Depression Visibility Wind Speed Wind Dir Waves Ship Positions

Luruyu54955

Last reported at 2016-May-24 15:00 UTC. Time now 2016-May-24 17:41 UTC.
Position S 36°31' W 158°30'.

Length 27 m.

Type: Fishing. MMSI: 412330945.

Barometer 1015.0 mb
Water temperature 16.9 ° C

Date/timePositionNaut miles runAvg speedWind from/ knotsBaromVisibWave heightAir tempDewpointWater temp
2016-May-24 15:00S 36°31' W 158°30'64727648.6 1015.0 16.9
2016-May-24 14:09N 36°44' E 122°19'5 8.0
2016-May-24 13:32N 36°46' E 122°24'647012087.2
2016-May-24 13:00S 36°32' W 158°30'2 1.6 1014.6 16.9
2016-May-24 12:00S 36°31' W 158°32'1 0.7 1015.0 16.9
2016-May-24 11:00S 36°31' W 158°31'0 0.1 1015.1 16.9
2016-May-24 08:00S 36°31' W 158°31'1 0.7 1013.9 16.9
2016-May-24 07:00S 36°30' W 158°31'0 0.0 1014.3 16.9
2016-May-24 06:00S 36°30' W 158°31'0 0.4 1014.4 16.9
2016-May-24 05:00S 36°31' W 158°30'1 1.0 1014.1 17.0
2016-May-24 04:00S 36°31' W 158°29'1 0.7 1014.0 17.0
2016-May-24 02:00S 36°30' W 158°31'0 0.1 1014.4 17.0
2016-May-24 01:00S 36°30' W 158°31'2 0.2 1014.6 16.9
2016-May-23 17:00S 36°28' W 158°32'0 0.0 1014.5 16.8
2016-May-23 16:00S 36°28' W 158°32'1 1.0 1014.2 16.8
2016-May-23 15:00S 36°28' W 158°30'0 0.0 1013.8 16.9
2016-May-23 14:00S 36°28' W 158°30'0 0.0 1013.7 16.9
2016-May-23 13:00S 36°28' W 158°30'2 0.6 1014.1 16.9
2016-May-23 10:00S 36°27' W 158°31'1 0.3 1013.7 16.9
2016-May-23 07:00S 36°26' W 158°30'0 0.0 1012.4 16.9
2016-May-23 06:00S 36°26' W 158°30'1 1.3 1012.1 16.9
2016-May-23 05:00S 36°25' W 158°30'1 0.7 1011.7 16.9
2016-May-23 04:00S 36°25' W 158°30'1 0.7 1011.6 16.9
2016-May-23 03:00S 36°25' W 158°30'0 0.0 1011.9 16.9
2016-May-23 02:00S 36°25' W 158°30'2 1.8 1012.0 16.9
2016-May-23 01:00S 36°24' W 158°31'2 0.4 1012.2 16.9
2016-May-22 20:00S 36°22' W 158°30'2 1.7 1014.5 16.9
2016-May-22 19:00S 36°20' W 158°31'3 1.3 1015.0 16.9
2016-May-22 17:00S 36°18' W 158°28'0 0.0 1014.7 16.9
2016-May-22 15:00S 36°18' W 158°28'1 0.3 1015.0 16.9
2016-May-22 13:00S 36°18' W 158°29'0 0.1 1016.1 16.9
2016-May-22 10:00S 36°18' W 158°29'2 0.5 1016.8 16.9
2016-May-22 06:00S 36°16' W 158°29'0 0.0 1016.3 17.0
2016-May-22 05:00S 36°16' W 158°29'1 0.9 1017.0 17.0
2016-May-22 04:00S 36°16' W 158°28'1 1.1 1016.5 17.0
2016-May-22 03:00S 36°15' W 158°29'0 0.0 1016.3 17.0
2016-May-22 02:00S 36°15' W 158°29'0 0.4 1015.8 17.1
2016-May-22 01:00S 36°15' W 158°29'1 1.4 1016.3 17.1
2016-May-22 00:00S 36°14' W 158°28'0 0.0 1016.8 17.1
2016-May-21 23:00S 36°14' W 158°28'0 0.0 1016.3 17.1
2016-May-21 20:00S 36°14' W 158°28'0 0.5 1017.1 17.0
2016-May-21 19:00S 36°13' W 158°29'1 0.7 1016.7 17.0
2016-May-21 17:00S 36°13' W 158°27'0 0.2 1015.4 17.0
2016-May-21 16:00S 36°14' W 158°27'2 0.5 1014.9 17.0
2016-May-21 13:00S 36°13' W 158°29'0 0.1 1013.6 17.0
2016-May-21 11:00S 36°13' W 158°29'0 0.0 1013.3 17.0
2016-May-21 10:00S 36°13' W 158°29'0 0.1 1013.3 17.0
2016-May-21 08:00S 36°13' W 158°29'0 0.3 1012.6 17.0
2016-May-21 07:00S 36°13' W 158°29'1 0.3 1012.6 17.0
2016-May-21 04:00S 36°12' W 158°28'0 0.2 1011.2 17.0
2016-May-21 02:00S 36°12' W 158°28'0 0.0 1010.7 17.1
2016-May-21 01:00S 36°12' W 158°28'0 0.3 1010.5 17.0
2016-May-21 00:00S 36°12' W 158°28'1 0.2 1010.4 17.0
2016-May-20 19:00S 36°12' W 158°29'1 1.4 1009.6 16.9
2016-May-20 18:00S 36°12' W 158°28'1 0.4 1009.1 16.9
2016-May-20 16:00S 36°12' W 158°29'0 0.2 1007.7 16.9
2016-May-20 14:00S 36°12' W 158°28'0 0.1 1006.8 16.9
2016-May-20 11:00S 36°12' W 158°28'1 0.2 1006.9 16.9
2016-May-20 07:00S 36°11' W 158°29'0 0.0 1007.3 16.8
2016-May-20 05:00S 36°11' W 158°29'0 0.2 1007.2 16.9
2016-May-20 04:00S 36°11' W 158°29'0 0.2 1006.8 16.9
2016-May-20 02:00S 36°11' W 158°29'0 0.0 1006.4 17.0
2016-May-20 00:00S 36°11' W 158°29'1 0.2 1005.9 17.0
2016-May-19 19:00S 36°12' W 158°29'0 0.0 1005.1 17.0
2016-May-19 18:00S 36°12' W 158°29'0 0.0 1004.6 17.0
2016-May-19 17:00S 36°12' W 158°29'0 0.4 1004.3 17.0
2016-May-19 16:00S 36°12' W 158°29'1 0.2 1003.7 17.0
2016-May-19 12:00S 36°11' W 158°30'0 0.0 1004.1 17.0
2016-May-19 11:00S 36°11' W 158°30'0 0.1 1004.2 17.0
2016-May-19 08:00S 36°11' W 158°30'0 0.3 1005.1 17.0
2016-May-19 07:00S 36°11' W 158°31'1 0.3 1005.4 17.0
2016-May-19 05:00S 36°11' W 158°31'0 0.5 1005.7 17.0
2016-May-19 04:00S 36°11' W 158°31'0 0.2 1005.5 17.0
2016-May-19 03:00S 36°11' W 158°31'0 0.0 1005.1 17.0
2016-May-19 02:00S 36°11' W 158°31'1 0.7 1005.0 17.0
2016-May-19 00:00S 36°11' W 158°32'1 0.3 1004.8 17.0
2016-May-18 20:00S 36°11' W 158°31'2 1.8 1005.1 16.9
2016-May-18 19:00S 36°12' W 158°33'2 0.5 1004.7 16.9
2016-May-18 16:00S 36°13' W 158°31'1 0.9 1002.3 17.0
2016-May-18 15:00S 36°13' W 158°32'0 0.0 1001.9 17.0
2016-May-18 14:00S 36°13' W 158°32'1 0.4 1001.4 17.0
2016-May-18 12:00S 36°13' W 158°33'0 0.0 1001.2 17.0
2016-May-18 11:00S 36°13' W 158°33'1 0.2 1001.1 17.0
2016-May-18 05:00S 36°13' W 158°35'1 0.6 999.8 17.0
2016-May-18 03:00S 36°14' W 158°35'1 0.4 999.6 17.1
2016-May-18 01:00S 36°15' W 158°36'1 0.2 1000.1 17.1
2016-May-17 19:00S 36°16' W 158°36'0 0.2 1002.5 17.0
2016-May-17 17:00S 36°16' W 158°37'0 0.4 1003.9 17.0
2016-May-17 16:00S 36°15' W 158°38'0 0.1 1004.3 17.0
2016-May-17 15:00S 36°15' W 158°37'0 0.0 1004.8 17.0
2016-May-17 14:00S 36°15' W 158°37'1 0.4 1005.7 17.0
2016-May-17 12:00S 36°15' W 158°38'64564191.5 1007.7 17.0
2016-May-17 10:27N 36°45' E 122°19'64554422.3
2016-May-17 09:00S 36°15' W 158°39'0 0.0 1010.4 17.1
2016-May-17 08:00S 36°15' W 158°39'0 0.1 1011.2 17.1
2016-May-17 05:00S 36°15' W 158°39'0 0.4 1011.9 17.1
2016-May-17 04:00S 36°15' W 158°40'1 0.2 1012.6 17.1
2016-May-17 01:00S 36°16' W 158°39'64572510.2 1013.1 17.1
2016-May-16 22:25N 36°51' E 122°23'8 8.8
2016-May-16 21:32N 36°48' E 122°32'9 8.6
2016-May-16 20:33N 36°43' E 122°41'643911457.5
2016-May-16 20:00S 36°16' W 158°39'1 0.6 1016.2 17.0
2016-May-16 19:00S 36°17' W 158°40'64377322.1 1016.5 17.0
2016-May-16 18:07N 36°41' E 122°40'2 2.8
2016-May-16 17:33N 36°42' E 122°41'643811484.9
2016-May-16 17:00S 36°17' W 158°40'1 1.1 1016.6 17.0
2016-May-16 16:00S 36°17' W 158°38'643510921.8 1016.6 17.0
2016-May-16 15:24N 36°43' E 122°48'643415662.0
2016-May-16 15:00S 36°17' W 158°39'643413779.6 1016.5 17.0
2016-May-16 14:31N 36°46' E 122°50'643212065.5
2016-May-16 14:00S 36°17' W 158°42'643214213.5 1016.8 17.0
2016-May-16 13:32N 36°47' E 122°51'643211747.2
2016-May-16 13:00S 36°17' W 158°42'0 0.0 1017.4 17.0
2016-May-16 12:00S 36°17' W 158°42'3 1.3 1018.0 17.0
2016-May-16 10:00S 36°17' W 158°39'643512569.5 1018.4 17.0
2016-May-16 09:29N 36°32' E 122°36'64354324.3
2016-May-16 08:00S 36°17' W 158°39'64369707.2 1018.7 17.0
2016-May-16 07:20N 36°30' E 122°33'643719104.3
2016-May-16 07:00S 36°17' W 158°39'0 0.1 1018.4 17.1
2016-May-16 06:00S 36°17' W 158°39'0 0.1 1018.3 17.1
2016-May-16 04:00S 36°17' W 158°39'0 0.1 1017.6 17.1
2016-May-16 03:00S 36°17' W 158°39'0 0.0 1017.7 17.1
2016-May-16 02:00S 36°17' W 158°39'0 0.0 1017.8 17.1
2016-May-16 01:00S 36°17' W 158°39'1 0.2 1017.9 17.1
2016-May-15 21:00S 36°16' W 158°39'1 0.5 1019.8 17.0
2016-May-15 19:00S 36°17' W 158°40'1 0.7 1020.0 17.0
2016-May-15 17:00S 36°18' W 158°38'1 1.4 1019.2 17.0
2016-May-15 16:00S 36°17' W 158°40'0 0.0 1018.9 17.0
2016-May-15 15:00S 36°17' W 158°40'0 0.0 1018.8 17.0
2016-May-15 12:00S 36°17' W 158°40'0 0.1 1019.1 17.0
2016-May-15 08:00S 36°18' W 158°40'1 0.6 1019.8 17.0
2016-May-15 07:00S 36°18' W 158°41'0 0.0 1019.6 17.0
2016-May-15 06:00S 36°18' W 158°41'0 0.2 1019.4 17.0
2016-May-15 05:00S 36°18' W 158°41'1 0.6 1019.5 17.0
2016-May-15 04:00S 36°18' W 158°40'0 0.1 1019.5 17.0
2016-May-15 03:00S 36°18' W 158°40'2 0.8 1019.6 17.0
2016-May-15 01:00S 36°19' W 158°42'1 0.1 1019.6 17.0
2016-May-14 19:00S 36°19' W 158°42'0 0.5 1021.8 17.0
2016-May-14 18:00S 36°19' W 158°42'   1021.6 17.0

Dump ship's entire track history